Weather at Belaga Airport

Public forecast

Using degrees Celsius for public forecast. Weather courtesy of forecast.io.

Closest aviation weather report (METAR) to Belaga Airport

Closest report is Bintulu Airport, 53.1 nm (98.3 km) WNW. Retrieved 2021/08/01 00:00 UTC (25 minutes ago):

WBGB 010000Z 14005KT 100V190 9999 FEW015CB 26/25 Q1010

Closest aviation forecast (TAF) to Belaga Airport

Closest forecast is Bintulu Airport, 53.1 nm (98.3 km) WNW. Retrieved 2021-08-01 00:00 UTC (25 minutes ago):

TAF WBGB 312300Z 0100/0200 26005KT 9999 FEW016